createdAt,value
2023-03-06T00:00:07.504Z,23.08
2023-03-06T00:02:33.904Z,23.21
2023-03-06T00:05:00.319Z,23.56
2023-03-06T00:07:26.697Z,23.80
2023-03-06T00:09:53.065Z,22.91
2023-03-06T00:12:19.414Z,22.57
2023-03-06T00:14:45.788Z,23.12
2023-03-06T00:17:12.168Z,22.47
2023-03-06T00:19:38.549Z,23.35
2023-03-06T00:22:04.946Z,23.15
2023-03-06T00:24:31.352Z,22.54
2023-03-06T00:26:57.721Z,22.66
2023-03-06T00:29:24.064Z,22.60
2023-03-06T00:31:50.535Z,23.67
2023-03-06T00:34:16.946Z,22.53
2023-03-06T00:36:43.316Z,22.46
2023-03-06T00:39:09.704Z,22.00
2023-03-06T00:41:36.100Z,21.55
2023-03-06T00:44:02.455Z,23.46
2023-03-06T00:46:28.815Z,22.97
2023-03-06T00:48:55.216Z,22.60
2023-03-06T00:51:21.606Z,21.47
2023-03-06T00:53:47.974Z,23.03
2023-03-06T00:56:14.594Z,23.86
2023-03-06T00:58:40.960Z,24.95
2023-03-06T01:01:07.400Z,24.96
2023-03-06T01:03:33.775Z,24.15
2023-03-06T01:06:00.183Z,24.26
2023-03-06T01:08:26.575Z,25.03
2023-03-06T01:10:52.998Z,25.60
2023-03-06T01:13:19.353Z,25.04
2023-03-06T01:15:45.732Z,25.34
2023-03-06T01:18:12.099Z,25.38
2023-03-06T01:20:38.485Z,25.20
2023-03-06T01:23:04.886Z,25.80
2023-03-06T01:25:31.255Z,25.74
2023-03-06T01:27:57.607Z,24.72
2023-03-06T01:30:23.993Z,24.97
2023-03-06T01:32:50.389Z,25.11
2023-03-06T01:35:16.754Z,24.98
2023-03-06T01:37:43.168Z,25.93
2023-03-06T01:40:09.569Z,25.07
2023-03-06T01:42:35.993Z,24.29
2023-03-06T01:45:02.375Z,23.51
2023-03-06T01:47:28.741Z,24.52
2023-03-06T01:49:55.143Z,24.20
2023-03-06T01:52:21.598Z,24.33
2023-03-06T01:54:48.001Z,24.96
2023-03-06T01:57:14.358Z,24.40
2023-03-06T01:59:40.742Z,25.40
2023-03-06T02:02:07.145Z,25.85
2023-03-06T02:04:33.503Z,25.01
2023-03-06T02:06:59.904Z,24.53
2023-03-06T02:09:26.276Z,24.52
2023-03-06T02:11:52.670Z,24.11
2023-03-06T02:14:19.050Z,24.48
2023-03-06T02:16:45.493Z,25.17
2023-03-06T02:19:11.898Z,24.40
2023-03-06T02:21:38.259Z,24.09
2023-03-06T02:24:04.646Z,23.52
2023-03-06T02:26:31.058Z,24.47
2023-03-06T02:28:57.542Z,23.44
2023-03-06T02:31:23.945Z,24.13
2023-03-06T02:33:50.303Z,23.98
2023-03-06T02:36:16.646Z,23.95
2023-03-06T02:38:43.044Z,23.45
2023-03-06T02:41:09.460Z,23.46
2023-03-06T02:43:35.866Z,24.79
2023-03-06T02:46:02.296Z,24.91
2023-03-06T02:48:28.771Z,25.31
2023-03-06T02:50:55.126Z,25.49
2023-03-06T02:53:21.487Z,24.84
2023-03-06T02:55:47.891Z,25.00
2023-03-06T02:58:14.252Z,25.13
2023-03-06T03:00:40.628Z,24.64
2023-03-06T03:03:07.014Z,25.95
2023-03-06T03:05:33.407Z,25.94
2023-03-06T03:07:59.772Z,27.13
2023-03-06T03:10:26.161Z,26.21
2023-03-06T03:12:52.513Z,26.04
2023-03-06T03:15:18.909Z,25.26
2023-03-06T03:17:45.296Z,25.55
2023-03-06T03:20:11.725Z,25.65
2023-03-06T03:22:38.083Z,26.20
2023-03-06T03:25:04.451Z,27.05
2023-03-06T03:27:30.812Z,27.60
2023-03-06T03:29:57.232Z,26.94
2023-03-06T03:32:23.650Z,26.28
2023-03-06T03:34:50.005Z,26.03
2023-03-06T03:37:16.391Z,26.49
2023-03-06T03:39:42.777Z,26.47
2023-03-06T03:42:09.178Z,26.08
2023-03-06T03:44:35.568Z,26.25
2023-03-06T03:47:01.935Z,25.22
2023-03-06T03:49:28.300Z,25.74
2023-03-06T03:51:54.699Z,25.50
2023-03-06T03:54:21.097Z,26.33
2023-03-06T03:56:47.496Z,26.16
2023-03-06T03:59:13.853Z,26.75
2023-03-06T04:01:40.219Z,26.74
2023-03-06T04:04:06.609Z,27.47
2023-03-06T04:06:33.010Z,26.85
2023-03-06T04:08:59.415Z,27.13
2023-03-06T04:11:25.775Z,27.48
2023-03-06T04:13:52.137Z,27.22
2023-03-06T04:16:18.552Z,28.02
2023-03-06T04:18:44.981Z,28.06
2023-03-06T04:21:11.374Z,27.96
2023-03-06T04:23:37.783Z,28.35
2023-03-06T04:26:04.186Z,27.74
2023-03-06T04:28:30.595Z,27.57
2023-03-06T04:30:56.998Z,28.09
2023-03-06T04:33:23.371Z,27.67
2023-03-06T04:35:49.776Z,27.60
2023-03-06T04:38:16.150Z,27.55
2023-03-06T04:40:44.572Z,27.47
2023-03-06T04:43:11.358Z,28.26
2023-03-06T04:45:37.795Z,28.33
2023-03-06T04:48:04.176Z,29.47
2023-03-06T04:50:30.532Z,29.70
2023-03-06T04:52:56.917Z,30.86
2023-03-06T04:55:23.318Z,30.55
2023-03-06T04:57:49.733Z,29.92
2023-03-06T05:00:16.123Z,30.02
2023-03-06T05:02:42.521Z,30.60
2023-03-06T05:05:08.881Z,30.69
2023-03-06T05:07:35.227Z,31.25
2023-03-06T05:10:01.568Z,30.46
2023-03-06T05:12:27.904Z,30.67
2023-03-06T05:14:54.250Z,31.73
2023-03-06T05:17:20.647Z,30.96
2023-03-06T05:19:47.012Z,31.74
2023-03-06T05:22:13.371Z,30.36
2023-03-06T05:24:39.759Z,30.01
2023-03-06T05:27:06.134Z,31.75
2023-03-06T05:29:32.500Z,29.98
2023-03-06T05:31:58.990Z,30.61
2023-03-06T05:34:25.406Z,31.97
2023-03-06T05:36:51.779Z,30.91
2023-03-06T05:39:18.168Z,30.03
2023-03-06T05:41:44.583Z,31.12
2023-03-06T05:44:10.994Z,30.25
2023-03-06T05:46:37.355Z,30.23
2023-03-06T05:49:03.765Z,29.68
2023-03-06T05:51:30.186Z,31.59
2023-03-06T05:53:56.599Z,32.79
2023-03-06T05:56:23.000Z,31.60
2023-03-06T05:58:49.361Z,30.86
2023-03-06T06:01:15.763Z,31.20
2023-03-06T06:03:42.211Z,30.55
2023-03-06T06:06:08.594Z,30.27
2023-03-06T06:08:34.962Z,30.42
2023-03-06T06:11:01.350Z,29.64
2023-03-06T06:13:27.736Z,30.12
2023-03-06T06:15:54.184Z,29.90
2023-03-06T06:18:20.591Z,30.06
2023-03-06T06:20:47.009Z,30.55
2023-03-06T06:23:13.406Z,30.34
2023-03-06T06:25:39.804Z,29.92
2023-03-06T06:28:06.159Z,28.97
2023-03-06T06:30:32.520Z,29.05
2023-03-06T06:32:58.925Z,28.61
2023-03-06T06:35:25.349Z,29.01
2023-03-06T06:37:51.763Z,28.76
2023-03-06T06:40:18.167Z,28.55
2023-03-06T06:42:44.642Z,28.34
2023-03-06T06:45:11.029Z,29.63
2023-03-06T06:47:37.464Z,29.21
2023-03-06T06:50:03.868Z,29.18
2023-03-06T06:52:30.230Z,30.63
2023-03-06T06:54:56.584Z,30.95
2023-03-06T06:57:22.934Z,32.41
2023-03-06T06:59:50.718Z,31.95
2023-03-06T07:02:18.766Z,32.60
2023-03-06T07:05:02.048Z,32.05
2023-03-06T07:07:29.785Z,32.74
2023-03-06T07:09:56.160Z,32.55
2023-03-06T07:12:22.551Z,32.87
2023-03-06T07:14:48.927Z,33.10
2023-03-06T07:17:15.313Z,33.19
2023-03-06T07:19:41.707Z,32.84
2023-03-06T07:22:08.123Z,35.15
2023-03-06T07:24:34.690Z,35.59
2023-03-06T07:27:01.103Z,37.11
2023-03-06T07:29:27.524Z,35.72
2023-03-06T07:31:53.874Z,34.15
2023-03-06T07:34:20.261Z,33.09
2023-03-06T07:36:46.687Z,33.02
2023-03-06T07:39:13.072Z,33.84
2023-03-06T07:41:39.461Z,33.29
2023-03-06T07:44:05.826Z,33.45
2023-03-06T07:46:32.302Z,33.89
2023-03-06T07:48:58.691Z,31.75
2023-03-06T07:51:25.056Z,30.92
2023-03-06T07:53:51.452Z,30.77
2023-03-06T07:56:17.867Z,30.03
2023-03-06T07:58:44.252Z,29.92
2023-03-06T08:01:10.600Z,29.96
2023-03-06T08:03:36.973Z,30.08
2023-03-06T08:06:03.387Z,31.29
2023-03-06T08:08:29.847Z,31.92
2023-03-06T08:10:56.203Z,31.85
2023-03-06T08:13:22.543Z,30.89
2023-03-06T08:15:48.901Z,32.25
2023-03-06T08:18:15.251Z,32.64
2023-03-06T08:20:41.641Z,32.55
2023-03-06T08:23:08.065Z,33.67
2023-03-06T08:25:34.435Z,34.22
2023-03-06T08:28:02.879Z,35.10
2023-03-06T08:30:29.269Z,34.98
2023-03-06T08:32:55.694Z,35.78
2023-03-06T08:35:22.164Z,35.80
2023-03-06T08:37:48.579Z,36.07
2023-03-06T08:40:14.944Z,36.52
2023-03-06T08:42:41.317Z,37.72
2023-03-06T08:45:07.685Z,37.53
2023-03-06T08:47:34.080Z,38.34
2023-03-06T08:50:00.883Z,38.76
2023-03-06T08:52:27.314Z,38.54
2023-03-06T08:54:53.728Z,39.14
2023-03-06T08:57:20.100Z,37.93
2023-03-06T08:59:46.495Z,39.40
2023-03-06T09:02:12.949Z,38.01
2023-03-06T09:04:39.347Z,38.70
2023-03-06T09:07:05.747Z,39.41
2023-03-06T09:09:32.154Z,38.47
2023-03-06T09:11:58.556Z,38.19
2023-03-06T09:14:24.958Z,38.20
2023-03-06T09:16:51.397Z,39.16
2023-03-06T09:19:17.800Z,38.34
2023-03-06T09:21:44.195Z,39.42
2023-03-06T09:24:10.611Z,38.59
2023-03-06T09:26:45.557Z,39.14
2023-03-06T09:29:12.840Z,40.47
2023-03-06T09:31:39.264Z,40.85
2023-03-06T09:34:05.646Z,39.49
2023-03-06T09:36:34.409Z,40.25
2023-03-06T09:39:06.532Z,40.45
2023-03-06T09:41:32.900Z,40.07
2023-03-06T09:43:59.287Z,40.63
2023-03-06T09:46:25.756Z,42.59
2023-03-06T09:48:52.194Z,40.33
2023-03-06T09:51:18.602Z,41.04
2023-03-06T09:53:44.960Z,42.06
2023-03-06T09:56:11.379Z,41.88
2023-03-06T09:58:37.788Z,41.72
2023-03-06T10:01:04.186Z,41.34
2023-03-06T10:03:31.690Z,41.66
2023-03-06T10:05:58.067Z,41.87
2023-03-06T10:08:24.419Z,41.68
2023-03-06T10:10:50.818Z,41.68
2023-03-06T10:13:17.214Z,41.51
2023-03-06T10:15:43.626Z,40.30
2023-03-06T10:18:10.050Z,41.05
2023-03-06T10:20:36.457Z,39.92
2023-03-06T10:23:05.174Z,39.23
2023-03-06T10:25:31.829Z,40.17
2023-03-06T10:27:58.204Z,39.82
2023-03-06T10:30:24.606Z,39.64
2023-03-06T10:32:51.017Z,38.97
2023-03-06T10:35:17.421Z,38.76
2023-03-06T10:37:43.842Z,38.61
2023-03-06T10:40:10.246Z,39.65
2023-03-06T10:42:36.747Z,39.13
2023-03-06T10:45:03.180Z,39.08
2023-03-06T10:47:29.634Z,39.45
2023-03-06T10:49:55.988Z,39.90
2023-03-06T10:52:22.382Z,40.56
2023-03-06T10:54:48.761Z,41.14
2023-03-06T10:57:15.153Z,41.14
2023-03-06T10:59:41.509Z,42.15
2023-03-06T11:02:07.859Z,75.58
2023-03-06T11:04:34.278Z,62.89
2023-03-06T11:07:00.688Z,46.14
2023-03-06T11:09:27.091Z,41.47
2023-03-06T11:11:53.497Z,41.90
2023-03-06T11:14:19.861Z,40.76
2023-03-06T11:16:46.254Z,40.54
2023-03-06T11:19:12.617Z,41.04
2023-03-06T11:21:38.963Z,41.05
2023-03-06T11:24:05.366Z,40.42
2023-03-06T11:26:31.781Z,38.18
2023-03-06T11:28:58.187Z,37.50
2023-03-06T11:31:24.577Z,38.48
2023-03-06T11:33:51.060Z,39.39
2023-03-06T11:36:17.466Z,40.09
2023-03-06T11:38:43.828Z,40.34
2023-03-06T11:41:10.219Z,41.90
2023-03-06T11:43:36.632Z,41.92
2023-03-06T11:46:03.046Z,43.28
2023-03-06T11:48:29.448Z,42.57
2023-03-06T11:50:55.849Z,42.21
2023-03-06T11:53:22.246Z,43.56
2023-03-06T11:55:48.662Z,42.21
2023-03-06T11:58:15.070Z,41.35
2023-03-06T12:00:41.431Z,40.78
2023-03-06T12:03:07.791Z,40.44
2023-03-06T12:05:34.219Z,37.00
2023-03-06T12:08:00.603Z,36.89
2023-03-06T12:10:26.993Z,55.56
2023-03-06T12:12:53.389Z,45.73
2023-03-06T12:15:19.755Z,38.99
2023-03-06T12:17:46.143Z,38.59
2023-03-06T12:20:12.501Z,39.68
2023-03-06T12:22:38.857Z,39.16
2023-03-06T12:25:05.301Z,38.74
2023-03-06T12:27:31.654Z,38.24
2023-03-06T12:29:58.044Z,44.85
2023-03-06T12:32:24.467Z,37.65
2023-03-06T12:34:50.840Z,37.42
2023-03-06T12:37:17.238Z,37.36
2023-03-06T12:39:43.588Z,37.85
2023-03-06T12:42:17.832Z,37.80
2023-03-06T12:44:48.927Z,37.09
2023-03-06T12:47:15.347Z,38.34
2023-03-06T12:49:41.712Z,37.26
2023-03-06T12:52:08.225Z,38.21
2023-03-06T12:54:34.612Z,37.24
2023-03-06T12:57:01.021Z,37.31
2023-03-06T12:59:27.427Z,39.24
2023-03-06T13:01:53.837Z,39.49
2023-03-06T13:04:20.282Z,40.19
2023-03-06T13:06:50.816Z,41.02
2023-03-06T13:09:17.706Z,38.73
2023-03-06T13:11:44.073Z,40.56
2023-03-06T13:14:10.480Z,40.73
2023-03-06T13:16:36.923Z,38.93
2023-03-06T13:19:03.336Z,38.38
2023-03-06T13:21:29.757Z,39.24
2023-03-06T13:23:56.121Z,38.43
2023-03-06T13:26:22.526Z,38.73
2023-03-06T13:28:48.893Z,38.43
2023-03-06T13:31:26.526Z,39.16
2023-03-06T13:33:53.514Z,38.54
2023-03-06T13:36:20.137Z,38.83
2023-03-06T13:38:46.542Z,38.93
2023-03-06T13:41:12.954Z,38.82
2023-03-06T13:43:39.352Z,37.42
2023-03-06T13:46:05.749Z,36.96
2023-03-06T13:48:47.346Z,36.26
2023-03-06T13:51:13.740Z,35.83
2023-03-06T13:53:40.190Z,35.46
2023-03-06T13:56:06.644Z,36.57
2023-03-06T13:58:33.023Z,36.38
2023-03-06T14:00:59.448Z,36.21
2023-03-06T14:03:25.807Z,35.20
2023-03-06T14:05:52.215Z,35.21
2023-03-06T14:08:18.596Z,34.02
2023-03-06T14:10:44.950Z,33.29
2023-03-06T14:13:11.307Z,33.24
2023-03-06T14:15:37.710Z,31.81
2023-03-06T14:18:04.117Z,33.09
2023-03-06T14:20:30.520Z,33.78
2023-03-06T14:22:56.887Z,34.44
2023-03-06T14:25:23.314Z,32.68
2023-03-06T14:27:49.730Z,31.03
2023-03-06T14:30:16.134Z,29.98
2023-03-06T14:32:42.628Z,28.21
2023-03-06T14:35:08.996Z,28.85
2023-03-06T14:37:35.397Z,29.88
2023-03-06T14:40:01.805Z,30.36
2023-03-06T14:42:28.194Z,31.45
2023-03-06T14:44:54.569Z,31.07
2023-03-06T14:47:20.969Z,32.95
2023-03-06T14:49:47.375Z,31.33
2023-03-06T14:52:13.794Z,32.21
2023-03-06T14:54:40.213Z,31.46
2023-03-06T14:57:06.654Z,29.85
2023-03-06T14:59:33.067Z,29.65
2023-03-06T15:01:59.571Z,28.31
2023-03-06T15:04:25.984Z,28.12
2023-03-06T15:06:52.416Z,29.70
2023-03-06T15:09:18.811Z,28.90
2023-03-06T15:11:45.184Z,30.61
2023-03-06T15:14:11.570Z,32.44
2023-03-06T15:16:38.067Z,33.06
2023-03-06T15:19:04.464Z,32.68
2023-03-06T15:21:30.859Z,31.79
2023-03-06T15:23:57.218Z,30.77
2023-03-06T15:26:23.635Z,31.32
2023-03-06T15:28:52.185Z,30.42
2023-03-06T15:31:20.692Z,27.25
2023-03-06T15:33:47.095Z,22.56
2023-03-06T15:36:13.484Z,18.74
2023-03-06T15:38:39.905Z,22.56
2023-03-06T15:41:06.277Z,22.94
2023-03-06T15:43:32.644Z,22.45
2023-03-06T15:45:59.178Z,20.43
2023-03-06T15:48:25.678Z,20.07
2023-03-06T15:50:52.057Z,19.18
2023-03-06T15:53:18.432Z,20.61
2023-03-06T15:55:44.828Z,17.58
2023-03-06T15:58:11.199Z,14.51
2023-03-06T16:00:37.557Z,13.40
2023-03-06T16:03:03.916Z,10.99
2023-03-06T16:05:30.266Z,9.70
2023-03-06T16:07:56.608Z,9.30
2023-03-06T16:10:22.957Z,9.57
2023-03-06T16:12:49.316Z,9.88
2023-03-06T16:15:15.701Z,9.38
2023-03-06T16:17:42.051Z,9.55
2023-03-06T16:20:08.444Z,9.70
2023-03-06T16:22:34.811Z,10.02
2023-03-06T16:25:01.163Z,10.08
2023-03-06T16:27:27.547Z,10.12
2023-03-06T16:29:54.026Z,10.20
2023-03-06T16:32:20.444Z,9.98
2023-03-06T16:34:46.859Z,10.07
2023-03-06T16:37:13.247Z,9.68
2023-03-06T16:39:39.633Z,9.61
2023-03-06T16:42:06.008Z,10.16
2023-03-06T16:44:32.394Z,10.44
2023-03-06T16:46:58.750Z,10.54
2023-03-06T16:49:25.232Z,10.58
2023-03-06T16:51:51.670Z,11.09
2023-03-06T16:54:18.046Z,12.01
2023-03-06T16:56:44.407Z,12.24
2023-03-06T16:59:10.792Z,11.99
2023-03-06T17:01:37.251Z,12.51
2023-03-06T17:04:03.712Z,12.10
2023-03-06T17:06:30.113Z,12.86
2023-03-06T17:08:56.476Z,12.82
2023-03-06T17:11:22.823Z,12.64
2023-03-06T17:13:49.241Z,12.53
2023-03-06T17:16:15.682Z,12.48
2023-03-06T17:18:42.046Z,12.34
2023-03-06T17:21:08.436Z,11.96
2023-03-06T17:23:34.836Z,12.02
2023-03-06T17:26:01.229Z,12.22
2023-03-06T17:28:27.585Z,12.40
2023-03-06T17:30:53.984Z,22.86
2023-03-06T17:33:20.398Z,30.51
2023-03-06T17:35:46.836Z,61.39
2023-03-06T17:38:13.231Z,14.65
2023-03-06T17:40:39.614Z,10.79
2023-03-06T17:43:05.961Z,10.85
2023-03-06T17:45:32.312Z,10.66
2023-03-06T17:47:58.705Z,10.80
2023-03-06T17:50:25.065Z,10.60
2023-03-06T17:52:51.449Z,10.43
2023-03-06T17:55:17.846Z,10.67
2023-03-06T17:57:44.192Z,9.74
2023-03-06T18:00:10.600Z,9.76
2023-03-06T18:02:37.023Z,10.20
2023-03-06T18:05:03.409Z,10.16
2023-03-06T18:07:29.868Z,10.14
2023-03-06T18:09:56.220Z,9.39
2023-03-06T18:12:22.584Z,9.68
2023-03-06T18:14:48.976Z,9.59
2023-03-06T18:17:15.330Z,9.68
2023-03-06T18:19:41.682Z,9.91
2023-03-06T18:22:08.039Z,9.54
2023-03-06T18:24:34.389Z,9.78
2023-03-06T18:27:00.775Z,10.20
2023-03-06T18:29:27.176Z,10.50
2023-03-06T18:31:53.553Z,11.02
2023-03-06T18:34:19.957Z,14.89
2023-03-06T18:36:46.353Z,17.00
2023-03-06T18:39:12.745Z,11.87
2023-03-06T18:41:39.123Z,10.91
2023-03-06T18:44:05.522Z,11.22
2023-03-06T18:46:31.928Z,11.41
2023-03-06T18:48:58.297Z,11.57
2023-03-06T18:51:24.644Z,11.81
2023-03-06T18:53:51.039Z,12.37
2023-03-06T18:56:17.394Z,12.30
2023-03-06T18:58:43.778Z,13.51
2023-03-06T19:01:10.195Z,16.06
2023-03-06T19:03:36.637Z,27.14
2023-03-06T19:06:03.064Z,28.86
2023-03-06T19:08:29.463Z,21.96
2023-03-06T19:10:55.858Z,15.29
2023-03-06T19:13:22.250Z,12.63
2023-03-06T19:15:48.623Z,12.65
2023-03-06T19:18:15.002Z,12.68
2023-03-06T19:20:41.385Z,12.49
2023-03-06T19:23:07.803Z,13.39
2023-03-06T19:25:34.158Z,13.19
2023-03-06T19:28:00.520Z,13.53
2023-03-06T19:30:26.916Z,13.48
2023-03-06T19:32:53.331Z,13.78
2023-03-06T19:35:19.818Z,13.73
2023-03-06T19:37:46.251Z,13.75
2023-03-06T19:40:12.683Z,14.20
2023-03-06T19:42:39.039Z,13.85
2023-03-06T19:45:05.437Z,13.51
2023-03-06T19:47:31.791Z,13.72
2023-03-06T19:49:58.183Z,14.10
2023-03-06T19:52:24.561Z,14.02
2023-03-06T19:54:50.901Z,13.88
2023-03-06T19:57:17.270Z,13.55
2023-03-06T19:59:43.654Z,13.58
2023-03-06T20:02:10.052Z,13.71
2023-03-06T20:04:36.458Z,14.34
2023-03-06T20:07:02.820Z,13.69
2023-03-06T20:09:29.168Z,13.93
2023-03-06T20:11:55.554Z,14.17
2023-03-06T20:14:21.960Z,13.82
2023-03-06T20:16:48.355Z,14.03
2023-03-06T20:19:14.707Z,13.61
2023-03-06T20:21:41.051Z,13.57
2023-03-06T20:24:07.413Z,14.14
2023-03-06T20:26:33.843Z,13.72
2023-03-06T20:29:00.258Z,13.79
2023-03-06T20:31:26.688Z,13.65
2023-03-06T20:33:53.137Z,13.19
2023-03-06T20:36:19.517Z,14.00
2023-03-06T20:38:45.864Z,13.91
2023-03-06T20:41:12.228Z,13.81
2023-03-06T20:43:38.583Z,14.14
2023-03-06T20:46:05.047Z,14.19
2023-03-06T20:48:31.423Z,14.40
2023-03-06T20:50:57.772Z,14.35
2023-03-06T20:53:24.121Z,13.97
2023-03-06T20:55:50.471Z,14.14
2023-03-06T20:58:16.864Z,14.33
2023-03-06T21:00:43.215Z,14.01
2023-03-06T21:03:09.561Z,13.73
2023-03-06T21:05:35.950Z,13.70
2023-03-06T21:08:02.323Z,13.82
2023-03-06T21:10:28.670Z,13.86
2023-03-06T21:12:55.049Z,13.93
2023-03-06T21:15:21.504Z,14.25
2023-03-06T21:17:47.861Z,14.27
2023-03-06T21:20:14.257Z,14.08
2023-03-06T21:22:40.660Z,13.77
2023-03-06T21:25:07.016Z,14.11
2023-03-06T21:27:33.419Z,14.31
2023-03-06T21:29:59.771Z,14.08
2023-03-06T21:32:26.184Z,13.84
2023-03-06T21:34:52.639Z,14.20
2023-03-06T21:37:19.000Z,14.13
2023-03-06T21:39:45.341Z,14.12
2023-03-06T21:42:11.733Z,13.74
2023-03-06T21:44:38.147Z,13.74
2023-03-06T21:47:04.558Z,13.59
2023-03-06T21:49:30.909Z,14.01
2023-03-06T21:51:57.309Z,13.62
2023-03-06T21:54:23.748Z,13.66
2023-03-06T21:56:50.125Z,13.70
2023-03-06T21:59:16.492Z,13.50
2023-03-06T22:01:42.858Z,13.49
2023-03-06T22:04:09.215Z,12.98
2023-03-06T22:06:35.705Z,13.39
2023-03-06T22:09:02.101Z,13.68
2023-03-06T22:11:28.492Z,13.88
2023-03-06T22:13:54.849Z,14.67
2023-03-06T22:16:21.284Z,14.91
2023-03-06T22:18:47.655Z,14.70
2023-03-06T22:21:14.013Z,14.71
2023-03-06T22:23:40.360Z,17.75
2023-03-06T22:26:06.778Z,19.81
2023-03-06T22:28:33.190Z,17.22
2023-03-06T22:30:59.556Z,15.64
2023-03-06T22:33:25.941Z,14.95
2023-03-06T22:35:52.413Z,14.15
2023-03-06T22:38:18.815Z,13.44
2023-03-06T22:40:45.221Z,13.35
2023-03-06T22:43:11.584Z,13.42
2023-03-06T22:45:38.042Z,13.41
2023-03-06T22:48:10.818Z,13.32
2023-03-06T22:50:37.711Z,13.79
2023-03-06T22:53:04.120Z,13.52
2023-03-06T22:55:30.491Z,13.45
2023-03-06T22:57:56.839Z,13.05
2023-03-06T23:00:23.230Z,12.79
2023-03-06T23:02:49.640Z,13.40
2023-03-06T23:05:16.038Z,12.87
2023-03-06T23:07:42.404Z,13.34
2023-03-06T23:10:08.761Z,12.78
2023-03-06T23:12:35.149Z,13.37
2023-03-06T23:15:01.585Z,12.78
2023-03-06T23:17:27.988Z,12.68
2023-03-06T23:19:54.341Z,12.67
2023-03-06T23:22:20.744Z,13.13
2023-03-06T23:24:47.315Z,12.83
2023-03-06T23:27:13.693Z,12.94
2023-03-06T23:29:40.060Z,12.93
2023-03-06T23:32:06.458Z,12.60
2023-03-06T23:34:32.867Z,13.22
2023-03-06T23:36:59.271Z,12.84
2023-03-06T23:39:25.653Z,12.52
2023-03-06T23:41:52.010Z,12.73
2023-03-06T23:44:18.427Z,12.21
2023-03-06T23:46:44.778Z,13.05
2023-03-06T23:49:11.132Z,13.00
2023-03-06T23:51:37.530Z,13.22
2023-03-06T23:54:03.904Z,13.51
2023-03-06T23:56:30.298Z,13.63
2023-03-06T23:58:56.644Z,13.67
